Belvidere, New Jersey
Current Conditions -  °F | °C
As of 8:51 PM on Saturday 25 Oct 2014 (Local Time) from KABE Reporting Station
Clear Clear  
Wind Chill: 58°   Ceiling: Unl
Heat Index: 58°   Visibility: 10mi
Dew Point: 45°   Wind: 9mph
Humidity: 62%   Direction: 230°SW
Pressure: 29.63"   Gusts: NA
Location:  40.83°N, 75.08°W
Report Text: KABE 260051Z 23008KT 10SM CLR 14/07 A2963 RMK AO2 SLP035 T01440072
Loading
Personal Weather Stations






























Interactive Weather Map
Tropical Storm Tracking
New forecast layout! Learn more

10-Day Weather Forecast

Advertisements
Track Severe Weather on mobile